sensor_id;sensor_type;location;lat;lon;timestamp;temperature;humidity
24902;DHT22;31328;51.402;0.016;2022-10-01T00:02:04;15.50;99.90
24902;DHT22;31328;51.402;0.016;2022-10-01T00:04:30;15.50;99.90
24902;DHT22;31328;51.402;0.016;2022-10-01T00:06:57;15.50;99.90
24902;DHT22;31328;51.402;0.016;2022-10-01T00:09:25;15.50;99.90
24902;DHT22;31328;51.402;0.016;2022-10-01T00:11:51;15.50;99.90
24902;DHT22;31328;51.402;0.016;2022-10-01T00:14:18;15.50;99.90
24902;DHT22;31328;51.402;0.016;2022-10-01T00:16:45;15.50;99.90
24902;DHT22;31328;51.402;0.016;2022-10-01T00:19:12;15.50;99.90
24902;DHT22;31328;51.402;0.016;2022-10-01T00:21:40;15.40;99.90
24902;DHT22;31328;51.402;0.016;2022-10-01T00:24:09;15.40;99.90
24902;DHT22;31328;51.402;0.016;2022-10-01T00:26:36;15.40;99.90
24902;DHT22;31328;51.402;0.016;2022-10-01T00:29:06;15.40;99.90
24902;DHT22;31328;51.402;0.016;2022-10-01T00:31:33;15.40;99.90
24902;DHT22;31328;51.402;0.016;2022-10-01T00:34:00;15.40;99.90
24902;DHT22;31328;51.402;0.016;2022-10-01T00:36:29;15.40;99.90
24902;DHT22;31328;51.402;0.016;2022-10-01T00:38:57;15.40;99.90
24902;DHT22;31328;51.402;0.016;2022-10-01T00:41:31;15.30;99.90
24902;DHT22;31328;51.402;0.016;2022-10-01T00:44:26;15.30;99.90
24902;DHT22;31328;51.402;0.016;2022-10-01T00:46:46;15.30;99.90
24902;DHT22;31328;51.402;0.016;2022-10-01T00:49:16;15.30;99.90
24902;DHT22;31328;51.402;0.016;2022-10-01T00:51:57;15.30;99.90
24902;DHT22;31328;51.402;0.016;2022-10-01T00:54:30;15.30;99.90
24902;DHT22;31328;51.402;0.016;2022-10-01T00:56:58;15.30;99.90
24902;DHT22;31328;51.402;0.016;2022-10-01T00:59:26;15.30;99.90
24902;DHT22;31328;51.402;0.016;2022-10-01T01:01:53;15.30;99.90
24902;DHT22;31328;51.402;0.016;2022-10-01T01:04:19;15.30;99.90
24902;DHT22;31328;51.402;0.016;2022-10-01T01:06:49;15.30;99.90
24902;DHT22;31328;51.402;0.016;2022-10-01T01:09:45;15.20;99.90
24902;DHT22;31328;51.402;0.016;2022-10-01T01:28:23;15.10;99.90
24902;DHT22;31328;51.402;0.016;2022-10-01T01:30:54;15.10;99.90
24902;DHT22;31328;51.402;0.016;2022-10-01T01:33:24;15.10;99.90
24902;DHT22;31328;51.402;0.016;2022-10-01T01:35:58;15.10;99.90
24902;DHT22;31328;51.402;0.016;2022-10-01T01:38:33;15.10;99.90
24902;DHT22;31328;51.402;0.016;2022-10-01T01:41:03;15.10;99.90
24902;DHT22;31328;51.402;0.016;2022-10-01T01:43:33;15.10;99.90
24902;DHT22;31328;51.402;0.016;2022-10-01T01:46:01;15.10;99.90
24902;DHT22;31328;51.402;0.016;2022-10-01T01:48:30;15.10;99.90
24902;DHT22;31328;51.402;0.016;2022-10-01T01:53:39;15.00;99.90
24902;DHT22;31328;51.402;0.016;2022-10-01T01:56:06;15.00;99.90
24902;DHT22;31328;51.402;0.016;2022-10-01T01:58:37;15.10;99.90
24902;DHT22;31328;51.402;0.016;2022-10-01T02:01:04;15.00;99.90
24902;DHT22;31328;51.402;0.016;2022-10-01T02:03:32;15.00;99.90
24902;DHT22;31328;51.402;0.016;2022-10-01T02:06:21;15.00;99.90
24902;DHT22;31328;51.402;0.016;2022-10-01T02:09:32;15.00;99.90
24902;DHT22;31328;51.402;0.016;2022-10-01T02:15:24;15.00;99.90
24902;DHT22;31328;51.402;0.016;2022-10-01T02:18:10;14.90;99.90
24902;DHT22;31328;51.402;0.016;2022-10-01T02:20:44;14.90;99.90
24902;DHT22;31328;51.402;0.016;2022-10-01T02:23:17;14.90;99.90
24902;DHT22;31328;51.402;0.016;2022-10-01T02:25:52;14.90;99.90
24902;DHT22;31328;51.402;0.016;2022-10-01T02:28:22;14.90;99.90
24902;DHT22;31328;51.402;0.016;2022-10-01T02:30:54;14.90;99.90
24902;DHT22;31328;51.402;0.016;2022-10-01T02:33:24;14.90;99.90
24902;DHT22;31328;51.402;0.016;2022-10-01T02:35:55;14.80;99.90
24902;DHT22;31328;51.402;0.016;2022-10-01T02:38:23;14.80;99.90
24902;DHT22;31328;51.402;0.016;2022-10-01T02:40:54;14.80;99.90
24902;DHT22;31328;51.402;0.016;2022-10-01T02:43:26;14.70;99.90
24902;DHT22;31328;51.402;0.016;2022-10-01T02:45:56;14.70;99.90
24902;DHT22;31328;51.402;0.016;2022-10-01T02:48:25;14.70;99.90
24902;DHT22;31328;51.402;0.016;2022-10-01T02:51:17;14.70;99.90
24902;DHT22;31328;51.402;0.016;2022-10-01T02:53:49;14.70;99.90
24902;DHT22;31328;51.402;0.016;2022-10-01T02:56:18;14.60;99.90
24902;DHT22;31328;51.402;0.016;2022-10-01T02:59:07;14.60;99.90
24902;DHT22;31328;51.402;0.016;2022-10-01T03:01:35;14.50;99.90
24902;DHT22;31328;51.402;0.016;2022-10-01T03:04:01;14.50;99.90
24902;DHT22;31328;51.402;0.016;2022-10-01T03:06:28;14.50;99.90
24902;DHT22;31328;51.402;0.016;2022-10-01T03:08:54;14.50;99.90
24902;DHT22;31328;51.402;0.016;2022-10-01T03:11:22;14.40;99.90
24902;DHT22;31328;51.402;0.016;2022-10-01T03:13:48;14.40;99.90
24902;DHT22;31328;51.402;0.016;2022-10-01T03:16:15;14.40;99.90
24902;DHT22;31328;51.402;0.016;2022-10-01T03:18:41;14.40;99.90
24902;DHT22;31328;51.402;0.016;2022-10-01T03:21:07;14.40;99.90
24902;DHT22;31328;51.402;0.016;2022-10-01T03:23:34;14.40;99.90
24902;DHT22;31328;51.402;0.016;2022-10-01T03:26:00;14.30;99.90
24902;DHT22;31328;51.402;0.016;2022-10-01T03:28:26;14.30;99.90
24902;DHT22;31328;51.402;0.016;2022-10-01T03:31:04;14.30;99.90
24902;DHT22;31328;51.402;0.016;2022-10-01T03:33:31;14.30;99.90
24902;DHT22;31328;51.402;0.016;2022-10-01T03:35:57;14.20;99.90
24902;DHT22;31328;51.402;0.016;2022-10-01T03:38:23;14.20;99.90
24902;DHT22;31328;51.402;0.016;2022-10-01T03:40:50;14.20;99.90
24902;DHT22;31328;51.402;0.016;2022-10-01T03:43:16;14.20;99.90
24902;DHT22;31328;51.402;0.016;2022-10-01T03:45:42;14.20;99.90
24902;DHT22;31328;51.402;0.016;2022-10-01T03:48:09;14.10;99.90
24902;DHT22;31328;51.402;0.016;2022-10-01T03:50:35;14.10;99.90
24902;DHT22;31328;51.402;0.016;2022-10-01T03:53:01;14.10;99.90
24902;DHT22;31328;51.402;0.016;2022-10-01T03:55:28;14.10;99.90
24902;DHT22;31328;51.402;0.016;2022-10-01T03:57:54;14.10;99.90
24902;DHT22;31328;51.402;0.016;2022-10-01T04:00:20;14.10;99.90
24902;DHT22;31328;51.402;0.016;2022-10-01T04:02:46;14.10;99.90
24902;DHT22;31328;51.402;0.016;2022-10-01T04:05:13;14.10;99.90
24902;DHT22;31328;51.402;0.016;2022-10-01T04:07:40;14.10;99.90
24902;DHT22;31328;51.402;0.016;2022-10-01T04:10:08;14.00;99.90
24902;DHT22;31328;51.402;0.016;2022-10-01T04:12:34;14.00;99.90
24902;DHT22;31328;51.402;0.016;2022-10-01T04:15:00;14.00;99.90
24902;DHT22;31328;51.402;0.016;2022-10-01T04:17:26;14.00;99.90
24902;DHT22;31328;51.402;0.016;2022-10-01T04:19:53;13.90;99.90
24902;DHT22;31328;51.402;0.016;2022-10-01T04:22:19;13.90;99.90
24902;DHT22;31328;51.402;0.016;2022-10-01T04:24:45;13.90;99.90
24902;DHT22;31328;51.402;0.016;2022-10-01T04:27:12;13.90;99.90
24902;DHT22;31328;51.402;0.016;2022-10-01T04:29:38;13.80;99.90
24902;DHT22;31328;51.402;0.016;2022-10-01T04:32:04;13.80;99.90
24902;DHT22;31328;51.402;0.016;2022-10-01T04:34:32;13.80;99.90
24902;DHT22;31328;51.402;0.016;2022-10-01T04:37:18;13.80;99.90
24902;DHT22;31328;51.402;0.016;2022-10-01T04:39:44;13.80;99.90
24902;DHT22;31328;51.402;0.016;2022-10-01T04:42:11;13.80;99.90
24902;DHT22;31328;51.402;0.016;2022-10-01T04:44:40;13.80;99.90
24902;DHT22;31328;51.402;0.016;2022-10-01T04:47:07;13.70;99.90
24902;DHT22;31328;51.402;0.016;2022-10-01T04:49:33;13.70;99.90
24902;DHT22;31328;51.402;0.016;2022-10-01T04:52:00;13.70;99.90
24902;DHT22;31328;51.402;0.016;2022-10-01T04:54:26;13.70;99.90
24902;DHT22;31328;51.402;0.016;2022-10-01T04:56:53;13.70;99.90
24902;DHT22;31328;51.402;0.016;2022-10-01T04:59:19;13.60;99.90
24902;DHT22;31328;51.402;0.016;2022-10-01T05:01:45;13.70;99.90
24902;DHT22;31328;51.402;0.016;2022-10-01T05:04:12;13.60;99.90
24902;DHT22;31328;51.402;0.016;2022-10-01T05:06:38;13.70;99.90
24902;DHT22;31328;51.402;0.016;2022-10-01T05:09:06;13.60;99.90
24902;DHT22;31328;51.402;0.016;2022-10-01T05:11:32;13.60;99.90
24902;DHT22;31328;51.402;0.016;2022-10-01T05:14:02;13.60;99.90
24902;DHT22;31328;51.402;0.016;2022-10-01T05:16:29;13.60;99.90
24902;DHT22;31328;51.402;0.016;2022-10-01T05:18:55;13.50;99.90
24902;DHT22;31328;51.402;0.016;2022-10-01T05:21:21;13.50;99.90
24902;DHT22;31328;51.402;0.016;2022-10-01T05:23:48;13.50;99.90
24902;DHT22;31328;51.402;0.016;2022-10-01T05:26:14;13.50;99.90
24902;DHT22;31328;51.402;0.016;2022-10-01T05:28:40;13.50;99.90
24902;DHT22;31328;51.402;0.016;2022-10-01T05:31:10;13.60;99.90
24902;DHT22;31328;51.402;0.016;2022-10-01T05:33:37;13.50;99.90
24902;DHT22;31328;51.402;0.016;2022-10-01T05:36:05;13.50;99.90
24902;DHT22;31328;51.402;0.016;2022-10-01T05:38:32;13.50;99.90
24902;DHT22;31328;51.402;0.016;2022-10-01T05:41:05;13.50;99.90
24902;DHT22;31328;51.402;0.016;2022-10-01T05:43:31;13.50;99.90
24902;DHT22;31328;51.402;0.016;2022-10-01T05:46:02;13.50;99.90
24902;DHT22;31328;51.402;0.016;2022-10-01T05:48:28;13.50;99.90
24902;DHT22;31328;51.402;0.016;2022-10-01T05:50:59;13.50;99.90
24902;DHT22;31328;51.402;0.016;2022-10-01T05:53:25;13.50;99.90
24902;DHT22;31328;51.402;0.016;2022-10-01T05:55:52;13.50;99.90
24902;DHT22;31328;51.402;0.016;2022-10-01T05:58:19;13.50;99.90
24902;DHT22;31328;51.402;0.016;2022-10-01T06:00:45;13.50;99.90
24902;DHT22;31328;51.402;0.016;2022-10-01T06:03:11;13.50;99.90
24902;DHT22;31328;51.402;0.016;2022-10-01T06:05:38;13.50;99.90
24902;DHT22;31328;51.402;0.016;2022-10-01T06:08:05;13.50;99.90
24902;DHT22;31328;51.402;0.016;2022-10-01T06:10:32;13.50;99.90
24902;DHT22;31328;51.402;0.016;2022-10-01T06:12:59;13.50;99.90
24902;DHT22;31328;51.402;0.016;2022-10-01T06:15:28;13.50;99.90
24902;DHT22;31328;51.402;0.016;2022-10-01T06:17:54;13.50;99.90
24902;DHT22;31328;51.402;0.016;2022-10-01T06:20:20;13.50;99.90
24902;DHT22;31328;51.402;0.016;2022-10-01T06:22:54;13.50;99.90
24902;DHT22;31328;51.402;0.016;2022-10-01T06:25:21;13.50;99.90
24902;DHT22;31328;51.402;0.016;2022-10-01T06:27:55;13.50;99.90
24902;DHT22;31328;51.402;0.016;2022-10-01T06:30:27;13.50;99.90
24902;DHT22;31328;51.402;0.016;2022-10-01T06:33:05;13.50;99.90
24902;DHT22;31328;51.402;0.016;2022-10-01T06:35:33;13.50;99.90
24902;DHT22;31328;51.402;0.016;2022-10-01T06:38:00;13.50;99.90
24902;DHT22;31328;51.402;0.016;2022-10-01T06:40:29;13.50;99.90
24902;DHT22;31328;51.402;0.016;2022-10-01T06:42:57;13.50;99.90
24902;DHT22;31328;51.402;0.016;2022-10-01T06:45:28;13.50;99.90
24902;DHT22;31328;51.402;0.016;2022-10-01T06:47:55;13.60;99.90
24902;DHT22;31328;51.402;0.016;2022-10-01T06:50:23;13.50;99.90
24902;DHT22;31328;51.402;0.016;2022-10-01T06:52:50;13.60;99.90
24902;DHT22;31328;51.402;0.016;2022-10-01T06:55:26;13.60;99.90
24902;DHT22;31328;51.402;0.016;2022-10-01T06:57:55;13.60;99.90
24902;DHT22;31328;51.402;0.016;2022-10-01T07:00:24;13.60;99.90
24902;DHT22;31328;51.402;0.016;2022-10-01T07:02:51;13.60;99.90
24902;DHT22;31328;51.402;0.016;2022-10-01T07:05:17;13.60;99.90
24902;DHT22;31328;51.402;0.016;2022-10-01T07:07:44;13.60;99.90
24902;DHT22;31328;51.402;0.016;2022-10-01T07:10:11;13.70;99.90
24902;DHT22;31328;51.402;0.016;2022-10-01T07:12:37;13.70;99.90
24902;DHT22;31328;51.402;0.016;2022-10-01T07:15:06;13.70;99.90
24902;DHT22;31328;51.402;0.016;2022-10-01T07:17:33;13.70;99.90
24902;DHT22;31328;51.402;0.016;2022-10-01T07:19:59;13.70;99.90
24902;DHT22;31328;51.402;0.016;2022-10-01T07:22:26;13.70;99.90
24902;DHT22;31328;51.402;0.016;2022-10-01T07:24:53;13.70;99.90
24902;DHT22;31328;51.402;0.016;2022-10-01T07:27:19;13.80;99.90
24902;DHT22;31328;51.402;0.016;2022-10-01T07:29:46;13.80;99.90
24902;DHT22;31328;51.402;0.016;2022-10-01T07:32:12;13.80;99.90
24902;DHT22;31328;51.402;0.016;2022-10-01T07:34:38;13.90;99.90
24902;DHT22;31328;51.402;0.016;2022-10-01T07:37:05;13.90;99.90
24902;DHT22;31328;51.402;0.016;2022-10-01T07:39:32;13.90;99.90
24902;DHT22;31328;51.402;0.016;2022-10-01T07:41:58;14.00;99.90
24902;DHT22;31328;51.402;0.016;2022-10-01T07:44:24;14.00;99.90
24902;DHT22;31328;51.402;0.016;2022-10-01T07:46:52;14.00;99.90
24902;DHT22;31328;51.402;0.016;2022-10-01T07:49:19;14.10;99.90
24902;DHT22;31328;51.402;0.016;2022-10-01T07:51:45;14.10;99.90
24902;DHT22;31328;51.402;0.016;2022-10-01T07:54:13;14.20;99.90
24902;DHT22;31328;51.402;0.016;2022-10-01T07:56:40;14.20;99.90
24902;DHT22;31328;51.402;0.016;2022-10-01T07:59:07;14.20;99.90
24902;DHT22;31328;51.402;0.016;2022-10-01T08:01:36;14.30;99.90
24902;DHT22;31328;51.402;0.016;2022-10-01T08:04:04;14.30;99.90
24902;DHT22;31328;51.402;0.016;2022-10-01T08:06:51;14.30;99.90
24902;DHT22;31328;51.402;0.016;2022-10-01T08:09:19;14.30;99.90
24902;DHT22;31328;51.402;0.016;2022-10-01T08:11:45;14.40;99.90
24902;DHT22;31328;51.402;0.016;2022-10-01T08:14:13;14.40;99.90
24902;DHT22;31328;51.402;0.016;2022-10-01T08:16:40;14.40;99.90
24902;DHT22;31328;51.402;0.016;2022-10-01T08:19:07;14.50;99.90
24902;DHT22;31328;51.402;0.016;2022-10-01T08:21:33;14.50;99.90
24902;DHT22;31328;51.402;0.016;2022-10-01T08:24:02;14.50;99.90
24902;DHT22;31328;51.402;0.016;2022-10-01T08:26:29;14.50;99.90
24902;DHT22;31328;51.402;0.016;2022-10-01T08:28:55;14.60;99.90
24902;DHT22;31328;51.402;0.016;2022-10-01T08:31:22;14.60;99.90
24902;DHT22;31328;51.402;0.016;2022-10-01T08:33:48;14.60;99.90
24902;DHT22;31328;51.402;0.016;2022-10-01T08:36:16;14.70;99.90
24902;DHT22;31328;51.402;0.016;2022-10-01T08:38:46;14.70;99.90
24902;DHT22;31328;51.402;0.016;2022-10-01T08:43:54;14.80;99.90
24902;DHT22;31328;51.402;0.016;2022-10-01T08:46:24;14.90;99.90
24902;DHT22;31328;51.402;0.016;2022-10-01T08:49:00;14.90;99.90
24902;DHT22;31328;51.402;0.016;2022-10-01T08:54:38;15.00;99.90
24902;DHT22;31328;51.402;0.016;2022-10-01T08:57:11;15.10;99.90
24902;DHT22;31328;51.402;0.016;2022-10-01T08:59:43;15.10;99.90
24902;DHT22;31328;51.402;0.016;2022-10-01T09:02:29;15.10;99.90
24902;DHT22;31328;51.402;0.016;2022-10-01T09:04:59;15.10;99.90
24902;DHT22;31328;51.402;0.016;2022-10-01T09:16:36;15.20;99.90
24902;DHT22;31328;51.402;0.016;2022-10-01T09:21:59;15.30;99.90
24902;DHT22;31328;51.402;0.016;2022-10-01T09:24:44;15.40;99.90
24902;DHT22;31328;51.402;0.016;2022-10-01T09:27:17;15.40;99.90
24902;DHT22;31328;51.402;0.016;2022-10-01T09:30:03;15.50;99.90
24902;DHT22;31328;51.402;0.016;2022-10-01T09:32:56;15.60;99.90
24902;DHT22;31328;51.402;0.016;2022-10-01T09:35:43;15.70;99.90
24902;DHT22;31328;51.402;0.016;2022-10-01T09:40:57;15.80;99.90
24902;DHT22;31328;51.402;0.016;2022-10-01T09:43:28;15.80;99.90
24902;DHT22;31328;51.402;0.016;2022-10-01T09:45:56;15.80;99.90
24902;DHT22;31328;51.402;0.016;2022-10-01T09:51:43;15.90;99.90
24902;DHT22;31328;51.402;0.016;2022-10-01T09:56:42;15.90;99.80
24902;DHT22;31328;51.402;0.016;2022-10-01T09:59:16;16.00;99.70
24902;DHT22;31328;51.402;0.016;2022-10-01T10:01:47;16.00;99.60
24902;DHT22;31328;51.402;0.016;2022-10-01T10:04:22;16.00;99.30
24902;DHT22;31328;51.402;0.016;2022-10-01T10:06:59;16.00;99.40
24902;DHT22;31328;51.402;0.016;2022-10-01T10:09:34;16.10;99.50
24902;DHT22;31328;51.402;0.016;2022-10-01T10:12:01;16.20;99.40
24902;DHT22;31328;51.402;0.016;2022-10-01T10:14:31;16.20;99.30
24902;DHT22;31328;51.402;0.016;2022-10-01T10:17:11;16.30;99.00
24902;DHT22;31328;51.402;0.016;2022-10-01T10:19:39;16.40;98.90
24902;DHT22;31328;51.402;0.016;2022-10-01T10:22:21;16.50;98.80
24902;DHT22;31328;51.402;0.016;2022-10-01T10:24:51;16.50;98.70
24902;DHT22;31328;51.402;0.016;2022-10-01T10:27:28;16.60;98.70
24902;DHT22;31328;51.402;0.016;2022-10-01T10:32:38;16.80;98.10
24902;DHT22;31328;51.402;0.016;2022-10-01T10:35:10;16.90;98.10
24902;DHT22;31328;51.402;0.016;2022-10-01T10:37:46;17.00;97.90
24902;DHT22;31328;51.402;0.016;2022-10-01T10:40:24;17.00;97.60
24902;DHT22;31328;51.402;0.016;2022-10-01T10:42:53;17.10;97.40
24902;DHT22;31328;51.402;0.016;2022-10-01T10:45:34;17.20;97.50
24902;DHT22;31328;51.402;0.016;2022-10-01T10:48:05;17.30;97.30
24902;DHT22;31328;51.402;0.016;2022-10-01T10:50:35;17.30;97.10
24902;DHT22;31328;51.402;0.016;2022-10-01T10:53:20;17.40;97.00
24902;DHT22;31328;51.402;0.016;2022-10-01T10:58:25;17.50;96.80
24902;DHT22;31328;51.402;0.016;2022-10-01T11:00:54;17.50;96.60
24902;DHT22;31328;51.402;0.016;2022-10-01T11:03:29;17.50;96.50
24902;DHT22;31328;51.402;0.016;2022-10-01T11:06:12;17.50;96.30
24902;DHT22;31328;51.402;0.016;2022-10-01T11:08:41;17.60;95.70
24902;DHT22;31328;51.402;0.016;2022-10-01T11:32:07;17.50;94.80
24902;DHT22;31328;51.402;0.016;2022-10-01T11:40:11;17.80;94.60
24902;DHT22;31328;51.402;0.016;2022-10-01T11:42:40;17.90;94.50
24902;DHT22;31328;51.402;0.016;2022-10-01T11:45:17;17.90;94.40
24902;DHT22;31328;51.402;0.016;2022-10-01T11:47:50;18.00;94.00
24902;DHT22;31328;51.402;0.016;2022-10-01T11:50:24;18.00;94.00
24902;DHT22;31328;51.402;0.016;2022-10-01T11:53:11;18.10;94.20
24902;DHT22;31328;51.402;0.016;2022-10-01T11:55:43;18.10;94.10
24902;DHT22;31328;51.402;0.016;2022-10-01T11:58:36;18.10;94.00
24902;DHT22;31328;51.402;0.016;2022-10-01T12:01:25;18.10;93.70
24902;DHT22;31328;51.402;0.016;2022-10-01T12:06:29;18.10;93.80
24902;DHT22;31328;51.402;0.016;2022-10-01T12:11:38;18.00;93.80
24902;DHT22;31328;51.402;0.016;2022-10-01T12:14:12;18.00;93.50
24902;DHT22;31328;51.402;0.016;2022-10-01T12:19:45;18.00;93.30
24902;DHT22;31328;51.402;0.016;2022-10-01T12:24:44;18.00;93.40
24902;DHT22;31328;51.402;0.016;2022-10-01T12:30:21;18.00;93.20
24902;DHT22;31328;51.402;0.016;2022-10-01T12:44:16;18.50;92.80
24902;DHT22;31328;51.402;0.016;2022-10-01T12:50:14;18.50;92.40
24902;DHT22;31328;51.402;0.016;2022-10-01T12:52:44;18.50;92.50
24902;DHT22;31328;51.402;0.016;2022-10-01T12:58:04;18.70;92.60
24902;DHT22;31328;51.402;0.016;2022-10-01T13:03:34;18.70;92.20
24902;DHT22;31328;51.402;0.016;2022-10-01T13:06:15;18.80;92.00
24902;DHT22;31328;51.402;0.016;2022-10-01T13:09:08;18.70;92.40
24902;DHT22;31328;51.402;0.016;2022-10-01T13:14:13;18.60;92.10
24902;DHT22;31328;51.402;0.016;2022-10-01T13:19:38;18.50;91.70
24902;DHT22;31328;51.402;0.016;2022-10-01T13:22:29;18.40;91.60
24902;DHT22;31328;51.402;0.016;2022-10-01T13:27:41;18.30;91.60
24902;DHT22;31328;51.402;0.016;2022-10-01T13:32:53;18.30;91.30
24902;DHT22;31328;51.402;0.016;2022-10-01T13:37:49;18.20;91.30
24902;DHT22;31328;51.402;0.016;2022-10-01T13:43:17;18.20;91.20
24902;DHT22;31328;51.402;0.016;2022-10-01T13:45:46;18.30;91.10
24902;DHT22;31328;51.402;0.016;2022-10-01T13:48:17;18.30;91.10
24902;DHT22;31328;51.402;0.016;2022-10-01T13:51:09;18.20;91.10
24902;DHT22;31328;51.402;0.016;2022-10-01T13:56:09;18.30;91.10
24902;DHT22;31328;51.402;0.016;2022-10-01T13:58:43;18.30;91.10
24902;DHT22;31328;51.402;0.016;2022-10-01T14:06:54;18.40;90.70
24902;DHT22;31328;51.402;0.016;2022-10-01T14:09:27;18.40;90.70
24902;DHT22;31328;51.402;0.016;2022-10-01T14:12:06;18.40;90.70
24902;DHT22;31328;51.402;0.016;2022-10-01T14:14:57;18.40;90.60
24902;DHT22;31328;51.402;0.016;2022-10-01T14:17:43;18.40;90.60
24902;DHT22;31328;51.402;0.016;2022-10-01T14:20:23;18.40;90.60
24902;DHT22;31328;51.402;0.016;2022-10-01T14:30:21;18.40;90.50
24902;DHT22;31328;51.402;0.016;2022-10-01T14:35:35;18.40;90.60
24902;DHT22;31328;51.402;0.016;2022-10-01T14:38:12;18.40;90.60
24902;DHT22;31328;51.402;0.016;2022-10-01T14:40:45;18.40;91.00
24902;DHT22;31328;51.402;0.016;2022-10-01T14:43:26;18.50;90.70
24902;DHT22;31328;51.402;0.016;2022-10-01T14:45:57;18.50;90.50
24902;DHT22;31328;51.402;0.016;2022-10-01T14:48:25;18.60;90.50
24902;DHT22;31328;51.402;0.016;2022-10-01T14:50:54;18.70;90.40
24902;DHT22;31328;51.402;0.016;2022-10-01T14:53:25;18.70;90.30
24902;DHT22;31328;51.402;0.016;2022-10-01T14:55:54;18.70;90.20
24902;DHT22;31328;51.402;0.016;2022-10-01T14:58:46;18.70;90.30
24902;DHT22;31328;51.402;0.016;2022-10-01T15:01:23;18.80;90.10
24902;DHT22;31328;51.402;0.016;2022-10-01T15:03:52;18.90;89.80
24902;DHT22;31328;51.402;0.016;2022-10-01T15:06:24;19.00;90.00
24902;DHT22;31328;51.402;0.016;2022-10-01T15:08:54;19.10;89.90
24902;DHT22;31328;51.402;0.016;2022-10-01T15:11:29;19.20;90.00
24902;DHT22;31328;51.402;0.016;2022-10-01T15:14:05;19.10;89.70
24902;DHT22;31328;51.402;0.016;2022-10-01T15:16:34;19.20;89.80
24902;DHT22;31328;51.402;0.016;2022-10-01T15:19:11;19.10;89.90
24902;DHT22;31328;51.402;0.016;2022-10-01T15:21:42;19.10;89.80
24902;DHT22;31328;51.402;0.016;2022-10-01T15:26:56;19.10;89.40
24902;DHT22;31328;51.402;0.016;2022-10-01T15:29:23;19.10;89.60
24902;DHT22;31328;51.402;0.016;2022-10-01T15:31:50;19.10;89.20
24902;DHT22;31328;51.402;0.016;2022-10-01T15:34:19;19.10;89.10
24902;DHT22;31328;51.402;0.016;2022-10-01T15:36:48;19.10;89.10
24902;DHT22;31328;51.402;0.016;2022-10-01T15:39:31;19.10;88.60
24902;DHT22;31328;51.402;0.016;2022-10-01T15:42:01;19.10;88.40
24902;DHT22;31328;51.402;0.016;2022-10-01T15:44:46;19.10;88.50
24902;DHT22;31328;51.402;0.016;2022-10-01T15:47:58;19.10;88.40
24902;DHT22;31328;51.402;0.016;2022-10-01T15:52:47;19.00;88.30
24902;DHT22;31328;51.402;0.016;2022-10-01T15:55:31;18.90;87.80
24902;DHT22;31328;51.402;0.016;2022-10-01T16:03:28;18.50;88.50
24902;DHT22;31328;51.402;0.016;2022-10-01T16:05:56;18.50;88.70
24902;DHT22;31328;51.402;0.016;2022-10-01T16:08:29;18.40;88.80
24902;DHT22;31328;51.402;0.016;2022-10-01T16:11:23;18.40;88.80
24902;DHT22;31328;51.402;0.016;2022-10-01T16:20:01;18.40;88.40
24902;DHT22;31328;51.402;0.016;2022-10-01T16:22:47;18.40;88.30
24902;DHT22;31328;51.402;0.016;2022-10-01T16:30:27;18.40;88.00
24902;DHT22;31328;51.402;0.016;2022-10-01T16:32:59;18.50;88.00
24902;DHT22;31328;51.402;0.016;2022-10-01T16:35:31;18.40;87.90
24902;DHT22;31328;51.402;0.016;2022-10-01T16:38:01;18.40;87.70
24902;DHT22;31328;51.402;0.016;2022-10-01T16:40:30;18.40;87.50
24902;DHT22;31328;51.402;0.016;2022-10-01T16:42:58;18.30;87.60
24902;DHT22;31328;51.402;0.016;2022-10-01T16:45:28;18.30;87.60
24902;DHT22;31328;51.402;0.016;2022-10-01T16:47:57;18.30;87.60
24902;DHT22;31328;51.402;0.016;2022-10-01T16:50:25;18.20;87.40
24902;DHT22;31328;51.402;0.016;2022-10-01T16:52:55;18.20;87.50
24902;DHT22;31328;51.402;0.016;2022-10-01T16:55:27;18.10;87.60
24902;DHT22;31328;51.402;0.016;2022-10-01T16:57:57;18.10;87.50
24902;DHT22;31328;51.402;0.016;2022-10-01T17:00:25;18.00;87.80
24902;DHT22;31328;51.402;0.016;2022-10-01T17:02:53;17.90;87.90
24902;DHT22;31328;51.402;0.016;2022-10-01T17:05:32;17.90;88.20
24902;DHT22;31328;51.402;0.016;2022-10-01T17:07:58;17.90;88.50
24902;DHT22;31328;51.402;0.016;2022-10-01T17:10:34;17.80;88.60
24902;DHT22;31328;51.402;0.016;2022-10-01T17:13:02;17.70;88.60
24902;DHT22;31328;51.402;0.016;2022-10-01T17:15:28;17.70;88.80
24902;DHT22;31328;51.402;0.016;2022-10-01T17:17:56;17.60;88.80
24902;DHT22;31328;51.402;0.016;2022-10-01T17:20:24;17.70;88.90
24902;DHT22;31328;51.402;0.016;2022-10-01T17:22:51;17.60;88.90
24902;DHT22;31328;51.402;0.016;2022-10-01T17:25:27;17.50;88.90
24902;DHT22;31328;51.402;0.016;2022-10-01T17:27:57;17.50;89.10
24902;DHT22;31328;51.402;0.016;2022-10-01T17:30:24;17.50;89.20
24902;DHT22;31328;51.402;0.016;2022-10-01T17:32:55;17.50;89.20
24902;DHT22;31328;51.402;0.016;2022-10-01T17:35:22;17.40;89.10
24902;DHT22;31328;51.402;0.016;2022-10-01T17:37:48;17.40;89.10
24902;DHT22;31328;51.402;0.016;2022-10-01T17:40:14;17.30;89.00
24902;DHT22;31328;51.402;0.016;2022-10-01T17:42:41;17.30;89.10
24902;DHT22;31328;51.402;0.016;2022-10-01T17:45:09;17.20;89.00
24902;DHT22;31328;51.402;0.016;2022-10-01T17:47:36;17.20;89.80
24902;DHT22;31328;51.402;0.016;2022-10-01T17:50:07;17.20;89.10
24902;DHT22;31328;51.402;0.016;2022-10-01T17:52:33;17.10;89.00
24902;DHT22;31328;51.402;0.016;2022-10-01T17:54:59;17.10;89.10
24902;DHT22;31328;51.402;0.016;2022-10-01T17:57:26;17.00;89.30
24902;DHT22;31328;51.402;0.016;2022-10-01T17:59:52;17.00;89.40
24902;DHT22;31328;51.402;0.016;2022-10-01T18:02:19;17.00;89.60
24902;DHT22;31328;51.402;0.016;2022-10-01T18:04:45;16.90;89.70
24902;DHT22;31328;51.402;0.016;2022-10-01T18:07:12;16.90;89.80
24902;DHT22;31328;51.402;0.016;2022-10-01T18:09:39;16.90;90.00
24902;DHT22;31328;51.402;0.016;2022-10-01T18:12:11;16.90;90.00
24902;DHT22;31328;51.402;0.016;2022-10-01T18:14:38;16.80;90.00
24902;DHT22;31328;51.402;0.016;2022-10-01T18:17:04;16.80;90.00
24902;DHT22;31328;51.402;0.016;2022-10-01T18:19:31;16.80;90.00
24902;DHT22;31328;51.402;0.016;2022-10-01T18:21:58;16.80;90.00
24902;DHT22;31328;51.402;0.016;2022-10-01T18:24:24;16.80;89.80
24902;DHT22;31328;51.402;0.016;2022-10-01T18:26:51;16.80;89.90
24902;DHT22;31328;51.402;0.016;2022-10-01T18:29:25;16.70;89.80
24902;DHT22;31328;51.402;0.016;2022-10-01T18:31:53;16.70;90.00
24902;DHT22;31328;51.402;0.016;2022-10-01T18:36:52;16.70;90.40
24902;DHT22;31328;51.402;0.016;2022-10-01T18:39:41;16.70;90.00
24902;DHT22;31328;51.402;0.016;2022-10-01T18:44:57;16.70;90.10
24902;DHT22;31328;51.402;0.016;2022-10-01T18:53:03;16.60;90.30
24902;DHT22;31328;51.402;0.016;2022-10-01T18:58:33;16.60;90.40